Chiniot Weather



Chiniot's Current Weather

Temprature 32.49o light rain

light rain

Rain: 0 %

Min Temprature32.49o
Max Temprature32.49o
Humidity64
Wind Speed8.84 m/h
Sun Rise05:31:54
Sun Set18:54:09
Current Time: 13-Aug-2020 18:36:22
Lat/Lon: 31.72, 72.98




Chiniot's Geo Location



Chiniot's Weather Forecast

Time Overall Temp Min Temp Max Temp Humidity Wind Speed Rain
13-Aug-2020 (Thu)
20:00:00 light rain 35.840 31.840 35.840 52 9.28 m/h 41 %
23:00:00 moderate rain 32.590 30.640 32.590 57 5.64 m/h 310 %
14-Aug-2020 (Fri)
02:00:00 moderate rain 31.520 30.960 31.520 68 4.93 m/h 458 %
05:00:00 light rain 30.190 30.110 30.190 76 3.75 m/h 28 %
08:00:00 light rain 30.940 30.940 30.940 73 4.42 m/h 87 %
11:00:00 light rain 32.900 32.900 32.900 62 3.25 m/h 133 %
14:00:00 broken clouds 37.040 37.040 37.040 45 1.35 m/h 0 %
17:00:00 scattered clouds 38.610 38.610 38.610 38 0.93 m/h 0 %
20:00:00 clear sky 35.920 35.920 35.920 46 1.88 m/h 0 %
23:00:00 few clouds 34.640 34.640 34.640 52 4.42 m/h 0 %
15-Aug-2020 (Sat)
02:00:00 light rain 32.620 32.620 32.620 59 4.71 m/h 62 %
05:00:00 light rain 30.520 30.520 30.520 70 2.55 m/h 106 %
08:00:00 light rain 33.330 33.330 33.330 60 4.61 m/h 76 %
11:00:00 scattered clouds 37.180 37.180 37.180 45 2.75 m/h 0 %
14:00:00 overcast clouds 38.620 38.620 38.620 40 4.18 m/h 0 %
17:00:00 scattered clouds 40.380 40.380 40.380 35 3.5 m/h 0 %
20:00:00 clear sky 36.820 36.820 36.820 43 3.63 m/h 0 %
23:00:00 clear sky 35.020 35.020 35.020 50 4.96 m/h 0 %
16-Aug-2020 (Sun)
02:00:00 clear sky 33.510 33.510 33.510 55 4.91 m/h 0 %
05:00:00 light rain 32.150 32.150 32.150 63 4.02 m/h 123 %
08:00:00 broken clouds 32.000 32.000 32.000 65 4.75 m/h 0 %
11:00:00 broken clouds 36.780 36.780 36.780 48 4.29 m/h 0 %
14:00:00 clear sky 40.220 40.220 40.220 37 3.79 m/h 0 %
17:00:00 clear sky 40.240 40.240 40.240 36 3.88 m/h 0 %
20:00:00 clear sky 36.760 36.760 36.760 43 3.53 m/h 0 %
23:00:00 clear sky 35.130 35.130 35.130 52 4.3 m/h 0 %
17-Aug-2020 (Mon)
02:00:00 few clouds 33.710 33.710 33.710 55 4.72 m/h 0 %
05:00:00 light rain 31.460 31.460 31.460 65 4.96 m/h 93 %
08:00:00 broken clouds 32.840 32.840 32.840 62 3.67 m/h 0 %
11:00:00 broken clouds 38.120 38.120 38.120 44 2.55 m/h 0 %
14:00:00 scattered clouds 41.880 41.880 41.880 33 3.56 m/h 0 %
17:00:00 scattered clouds 40.380 40.380 40.380 36 3.49 m/h 0 %
20:00:00 broken clouds 37.290 37.290 37.290 45 5.29 m/h 0 %
23:00:00 scattered clouds 34.010 34.010 34.010 57 5.87 m/h 0 %
18-Aug-2020 (Tue)
02:00:00 broken clouds 33.010 33.010 33.010 59 4.95 m/h 0 %
05:00:00 broken clouds 32.770 32.770 32.770 54 2.22 m/h 0 %
08:00:00 clear sky 35.090 35.090 35.090 46 2.9 m/h 0 %
11:00:00 few clouds 39.450 39.450 39.450 36 2.93 m/h 0 %
14:00:00 few clouds 42.540 42.540 42.540 29 3.41 m/h 0 %
17:00:00 broken clouds 41.290 41.290 41.290 32 3.58 m/h 0 %


Chiniot's Tourist Spots

Historical Places in Chiniot

Famous Cities (60)